Time;durP1;ratioP1;P1;durP2;ratioP2;P2;SDS_P1;SDS_P2;PMS_P1;PMS_P2;Temp;Humidity;BMP_temperature;BMP_pressure;BME280_temperature;BME280_humidity;BME280_pressure;Samples;Min_cycle;Max_cycle;Signal;HPM_P1;HPM_P2
2021/08/03 00:01:03;;;;;;;15.45;10.75;;;;;;;19.48;100.00;98331.59;4718734;30;20067;-53
2021/08/03 00:03:38;;;;;;;21.40;11.18;;;;;;;19.42;100.00;98329.47;4719926;30;20045;-53
2021/08/03 00:06:14;;;;;;;16.63;9.25;;;;;;;19.41;100.00;98327.84;4719291;30;20485;-54
2021/08/03 00:08:50;;;;;;;16.10;11.13;;;;;;;19.30;100.00;98318.28;4719593;30;20075;-55
2021/08/03 00:11:16;;;;;;;14.02;10.95;;;;;;;19.39;100.00;98345.59;4680091;30;20419;-52
2021/08/03 00:13:42;;;;;;;15.88;11.98;;;;;;;19.30;100.00;98331.47;4689597;30;20099;-54
2021/08/03 00:16:09;;;;;;;14.45;9.98;;;;;;;19.22;100.00;98333.09;4701001;30;20099;-51
2021/08/03 00:18:37;;;;;;;13.80;10.50;;;;;;;19.30;100.00;98354.34;4718485;30;20081;-51
2021/08/03 00:21:03;;;;;;;17.30;11.82;;;;;;;19.34;100.00;98358.34;4714184;30;20046;-54
2021/08/03 00:23:29;;;;;;;16.00;11.20;;;;;;;19.28;100.00;98354.47;4707180;30;20075;-52
2021/08/03 00:25:55;;;;;;;17.20;11.02;;;;;;;19.26;100.00;98372.22;4703410;30;20077;-50
2021/08/03 00:28:21;;;;;;;15.50;10.35;;;;;;;19.20;100.00;98370.16;4710302;30;20049;-54
2021/08/03 00:30:50;;;;;;;14.00;9.18;;;;;;;19.18;100.00;98368.63;4706575;30;20519;-53
2021/08/03 00:33:17;;;;;;;15.27;9.95;;;;;;;19.08;100.00;98358.09;4707048;30;20053;-53
2021/08/03 00:35:47;;;;;;;18.35;8.77;;;;;;;19.13;100.00;98384.84;4714788;30;20078;-54
2021/08/03 00:38:13;;;;;;;13.75;9.82;;;;;;;19.13;100.00;98386.66;4693049;30;20045;-55
2021/08/03 00:40:46;;;;;;;11.70;7.85;;;;;;;19.07;100.00;98388.03;4714778;30;20050;-52
2021/08/03 00:43:12;;;;;;;15.30;10.00;;;;;;;19.05;100.00;98396.06;4686800;30;20060;-55
2021/08/03 00:45:38;;;;;;;16.13;9.02;;;;;;;18.86;100.00;98374.97;4702016;30;20076;-52
2021/08/03 00:48:05;;;;;;;16.25;8.68;;;;;;;19.02;100.00;98395.50;4699168;30;20554;-50
2021/08/03 00:50:32;;;;;;;19.10;10.25;;;;;;;18.92;100.00;98384.97;4698212;30;20064;-52
2021/08/03 00:52:58;;;;;;;10.40;7.88;;;;;;;18.96;100.00;98402.16;4699550;30;20049;-55
2021/08/03 00:55:24;;;;;;;11.20;7.70;;;;;;;18.82;100.00;98386.75;4697947;30;20049;-55
2021/08/03 00:57:55;;;;;;;13.23;9.00;;;;;;;18.71;100.00;98364.97;4683617;30;20132;-53
2021/08/03 01:00:23;;;;;;;9.70;7.70;;;;;;;18.83;100.00;98393.69;4683869;30;20049;-53
2021/08/03 01:02:51;;;;;;;12.52;7.70;;;;;;;18.83;100.00;98411.28;4705239;30;20053;-53
2021/08/03 01:05:18;;;;;;;9.27;6.45;;;;;;;18.73;100.00;98405.16;4716043;30;20502;-56
2021/08/03 01:08:09;;;;;;;6.90;5.60;;;;;;;18.70;100.00;98406.25;4700968;30;20546;-54
2021/08/03 01:10:48;;;;;;;10.00;6.97;;;;;;;18.72;100.00;98416.66;4691346;30;20049;-54
2021/08/03 01:13:49;;;;;;;9.35;7.22;;;;;;;18.69;100.00;98424.81;4707309;30;20077;-54
2021/08/03 01:16:55;;;;;;;8.48;6.10;;;;;;;18.64;100.00;98422.59;4701098;30;20191;-54
2021/08/03 01:19:42;;;;;;;9.60;6.20;;;;;;;18.59;100.00;98423.00;4685786;30;20045;-52
2021/08/03 01:22:32;;;;;;;9.63;6.93;;;;;;;18.58;100.00;98421.31;4702144;30;20053;-51
2021/08/03 01:25:33;;;;;;;9.10;6.30;;;;;;;18.55;100.00;98418.13;4695589;30;20070;-54
2021/08/03 01:28:18;;;;;;;9.18;5.70;;;;;;;18.51;100.00;98422.81;4700408;30;20103;-51
2021/08/03 01:30:58;;;;;;;9.77;5.72;;;;;;;18.47;100.00;98421.41;4689380;30;20053;-53
2021/08/03 01:33:27;;;;;;;10.65;6.05;;;;;;;18.49;100.00;98427.34;4686003;30;20063;-49
2021/08/03 01:35:57;;;;;;;8.98;6.63;;;;;;;18.46;100.00;98432.06;4669762;30;20092;-54
2021/08/03 01:38:26;;;;;;;10.50;6.97;;;;;;;18.44;100.00;98426.91;4699828;30;20053;-55
2021/08/03 01:40:57;;;;;;;10.25;7.18;;;;;;;18.46;100.00;98432.91;4699846;30;20060;-53
2021/08/03 01:43:24;;;;;;;11.43;7.53;;;;;;;18.46;100.00;98435.53;4699866;30;20055;-55
2021/08/03 01:46:01;;;;;;;9.20;6.47;;;;;;;18.46;100.00;98458.38;4714332;30;20541;-55
2021/08/03 01:48:27;;;;;;;9.43;6.65;;;;;;;18.45;100.00;98451.44;4713866;30;20071;-53
2021/08/03 01:50:55;;;;;;;8.63;6.63;;;;;;;18.30;100.00;98431.72;4700297;30;20091;-51
2021/08/03 01:53:25;;;;;;;8.40;6.68;;;;;;;18.42;100.00;98451.72;4711198;30;20518;-55
2021/08/03 01:55:58;;;;;;;9.52;6.28;;;;;;;18.38;100.00;98459.03;4682846;30;20111;-53
2021/08/03 01:58:26;;;;;;;7.53;4.85;;;;;;;18.26;100.00;98449.56;4681695;30;20057;-54
2021/08/03 02:00:59;;;;;;;8.18;4.57;;;;;;;18.30;100.00;98456.22;4686326;30;20462;-52
2021/08/03 02:03:27;;;;;;;6.25;4.18;;;;;;;18.23;100.00;98454.25;4683923;30;20254;-57
2021/08/03 02:06:08;;;;;;;9.85;4.65;;;;;;;18.22;100.00;98453.41;4710118;30;20051;-53
2021/08/03 02:08:35;;;;;;;7.10;3.80;;;;;;;18.28;100.00;98473.09;4708444;30;20578;-53
2021/08/03 02:11:14;;;;;;;5.78;4.82;;;;;;;18.29;100.00;98466.88;4686832;30;20049;-53
2021/08/03 02:13:45;;;;;;;6.32;4.10;;;;;;;18.16;100.00;98462.66;4684781;30;20127;-55
2021/08/03 02:16:18;;;;;;;5.47;3.97;;;;;;;18.21;100.00;98470.97;4700628;30;20163;-55
2021/08/03 02:18:50;;;;;;;8.52;3.42;;;;;;;18.20;100.00;98474.59;4683204;30;20099;-51
2021/08/03 02:21:22;;;;;;;6.80;3.83;;;;;;;18.19;100.00;98478.19;4707939;30;20041;-54
2021/08/03 02:23:49;;;;;;;4.55;3.08;;;;;;;18.16;100.00;98480.25;4699276;30;20052;-54
2021/08/03 02:26:16;;;;;;;7.43;3.13;;;;;;;18.13;100.00;98483.13;4696881;30;20110;-56
2021/08/03 02:28:42;;;;;;;7.03;3.70;;;;;;;18.13;100.00;98478.69;4682365;30;20045;-54
2021/08/03 02:31:57;;;;;;;3.85;2.63;;;;;;;18.04;100.00;98476.84;4697733;30;20061;-54
2021/08/03 02:34:29;;;;;;;7.38;3.20;;;;;;;18.13;100.00;98494.47;4674241;30;20603;-56
2021/08/03 02:36:59;;;;;;;5.43;2.75;;;;;;;18.18;100.00;98484.41;4696695;30;20053;-54
2021/08/03 02:39:25;;;;;;;;;;;;;;;18.24;100.00;98477.78;4703701;30;20119;-53
2021/08/03 02:41:53;;;;;;;3.30;2.60;;;;;;;18.20;100.00;98476.41;4699013;30;20613;-53
2021/08/03 02:44:21;;;;;;;3.80;2.30;;;;;;;18.28;100.00;98491.50;4699372;30;20532;-53
2021/08/03 02:46:50;;;;;;;4.53;2.40;;;;;;;18.28;100.00;98486.25;4699366;30;20066;-52
2021/08/03 02:49:17;;;;;;;4.28;2.33;;;;;;;18.20;100.00;98474.59;4699278;30;20058;-54
2021/08/03 02:51:46;;;;;;;4.25;2.40;;;;;;;18.23;100.00;98483.19;4713961;30;20084;-54
2021/08/03 02:54:30;;;;;;;2.78;2.00;;;;;;;18.30;100.00;98497.50;4714361;30;20056;-52
2021/08/03 02:57:01;;;;;;;4.20;2.50;;;;;;;18.28;100.00;98488.88;4698935;30;20429;-53
2021/08/03 02:59:29;;;;;;;5.88;2.80;;;;;;;18.29;100.00;98496.66;4696169;30;20049;-56
2021/08/03 03:01:55;;;;;;;4.32;1.80;;;;;;;18.33;100.00;98507.75;4683757;30;20408;-51
2021/08/03 03:04:34;;;;;;;4.00;1.88;;;;;;;18.34;100.00;98509.41;4681699;30;20046;-54
2021/08/03 03:07:05;;;;;;;3.55;1.92;;;;;;;18.32;100.00;98511.38;4689268;30;20064;-52
2021/08/03 03:09:35;;;;;;;5.00;1.90;;;;;;;18.34;100.00;98527.84;4716334;30;20041;-54
2021/08/03 03:12:04;;;;;;;5.18;1.85;;;;;;;18.28;100.00;98515.19;4684313;30;20419;-57
2021/08/03 03:14:34;;;;;;;2.40;1.70;;;;;;;18.36;100.00;98528.56;4692138;30;20144;-54
2021/08/03 03:17:01;;;;;;;1.60;1.50;;;;;;;18.34;100.00;98526.03;4682026;30;20324;-53
2021/08/03 03:19:33;;;;;;;4.55;1.80;;;;;;;18.43;100.00;98535.78;4681727;30;20105;-55
2021/08/03 03:22:04;;;;;;;3.53;1.52;;;;;;;18.47;100.00;98539.00;4699058;30;20052;-55
2021/08/03 03:24:32;;;;;;;3.78;2.33;;;;;;;18.54;100.00;98541.00;4683654;30;20049;-54
2021/08/03 03:26:59;;;;;;;2.63;1.58;;;;;;;18.59;100.00;98541.44;4683941;30;20049;-55
2021/08/03 03:29:26;;;;;;;3.08;1.55;;;;;;;18.65;100.00;98544.53;4669995;30;20052;-55
2021/08/03 03:31:53;;;;;;;3.00;1.77;;;;;;;18.64;100.00;98535.78;4668697;30;20545;-52
2021/08/03 03:34:19;;;;;;;1.80;1.45;;;;;;;18.59;100.00;98530.09;4689444;30;20057;-54
2021/08/03 03:36:48;;;;;;;3.55;1.80;;;;;;;18.62;100.00;98543.00;4686525;30;20119;-54
2021/08/03 03:39:14;;;;;;;4.32;1.60;;;;;;;18.61;100.00;98547.44;4687372;30;20056;-52
2021/08/03 03:41:56;;;;;;;2.03;1.30;;;;;;;18.61;100.00;98547.44;4704929;30;20168;-55
2021/08/03 03:44:22;;;;;;;1.85;1.60;;;;;;;18.63;100.00;98553.38;4695922;30;20510;-51
2021/08/03 03:46:54;;;;;;;5.00;1.55;;;;;;;18.67;100.00;98553.97;4681477;30;20132;-54
2021/08/03 03:49:24;;;;;;;3.13;1.50;;;;;;;18.57;100.00;98542.56;4692703;30;20064;-55
2021/08/03 03:51:51;;;;;;;2.88;1.38;;;;;;;18.77;100.00;98575.06;4680930;30;20053;-54
2021/08/03 03:54:27;;;;;;;2.95;1.50;;;;;;;18.81;100.00;98579.94;4681560;30;20049;-52
2021/08/03 03:56:59;;;;;;;2.13;1.92;;;;;;;18.88;100.00;98585.53;4684179;30;20095;-55
2021/08/03 03:59:29;;;;;;;4.10;1.35;;;;;;;18.95;100.00;98592.75;4713168;30;20522;-53
2021/08/03 04:02:00;;;;;;;2.05;1.40;;;;;;;18.92;100.00;98569.34;4696497;30;20522;-53
2021/08/03 04:04:28;;;;;;;3.10;1.30;;;;;;;19.10;100.00;98576.63;4697812;30;20195;-51
2021/08/03 04:06:54;;;;;;;5.60;1.70;;;;;;;19.11;100.00;98562.44;4684072;30;20068;-54
2021/08/03 04:09:23;;;;;;;4.38;2.00;;;;;;;19.14;100.00;98575.38;4699562;30;20093;-54
2021/08/03 04:11:53;;;;;;;1.58;1.30;;;;;;;19.26;100.00;98590.13;4684886;30;20050;-54
2021/08/03 04:14:26;;;;;;;4.40;1.42;;;;;;;19.31;100.00;98594.00;4691468;30;20120;-55
2021/08/03 04:16:56;;;;;;;2.70;1.50;;;;;;;19.30;100.00;98595.00;4695655;30;20129;-57
2021/08/03 04:19:24;;;;;;;3.42;1.10;;;;;;;19.48;97.88;98597.84;4680944;30;20053;-56
2021/08/03 04:21:50;;;;;;;3.42;1.50;;;;;;;19.49;99.47;98588.97;4709802;30;20484;-57
2021/08/03 04:24:17;;;;;;;9.40;1.77;;;;;;;19.76;96.90;98627.88;4716775;30;20089;-57
2021/08/03 04:26:44;;;;;;;4.32;1.50;;;;;;;19.75;95.01;98616.50;4711084;30;20054;-55
2021/08/03 04:29:10;;;;;;;3.22;1.40;;;;;;;19.74;94.73;98587.59;4688904;30;20071;-55
2021/08/03 04:31:36;;;;;;;7.03;1.63;;;;;;;19.70;94.75;98612.59;4715776;30;20499;-56
2021/08/03 04:34:02;;;;;;;3.47;2.03;;;;;;;19.73;94.98;98634.25;4701099;30;20045;-55
2021/08/03 04:36:28;;;;;;;2.05;1.45;;;;;;;19.68;95.96;98633.81;4714953;30;20052;-55
2021/08/03 04:38:54;;;;;;;2.95;1.67;;;;;;;19.82;96.69;98643.16;4686709;30;20049;-58
2021/08/03 04:41:19;;;;;;;1.65;1.30;;;;;;;19.86;94.81;98657.75;4701230;30;20049;-57
2021/08/03 04:43:45;;;;;;;4.68;2.40;;;;;;;19.86;95.12;98657.75;4715533;30;20506;-55
2021/08/03 04:46:12;;;;;;;4.70;1.77;;;;;;;19.80;93.76;98655.66;4716315;30;20056;-56
2021/08/03 04:48:38;;;;;;;3.28;1.52;;;;;;;19.79;94.62;98654.81;4715697;30;20053;-57
2021/08/03 04:51:04;;;;;;;3.15;1.80;;;;;;;19.79;94.50;98656.59;4713736;30;20056;-55
2021/08/03 04:53:30;;;;;;;5.72;2.10;;;;;;;19.77;95.10;98662.03;4711067;30;20052;-56
2021/08/03 04:55:56;;;;;;;2.70;1.85;;;;;;;19.72;94.27;98652.88;4716781;30;20361;-58
2021/08/03 04:58:22;;;;;;;2.67;1.50;;;;;;;19.72;94.68;98656.34;4699332;30;20056;-57
2021/08/03 05:00:47;;;;;;;5.05;1.30;;;;;;;19.80;94.57;98656.47;4715340;30;20064;-57
2021/08/03 05:03:14;;;;;;;1.13;1.00;;;;;;;19.86;92.95;98663.84;4715595;30;20049;-57
2021/08/03 05:05:40;;;;;;;3.90;1.00;;;;;;;19.90;93.85;98664.41;4702551;30;20101;-58
2021/08/03 05:08:06;;;;;;;2.08;1.40;;;;;;;19.83;94.21;98653.59;4680066;30;20072;-55
2021/08/03 05:10:32;;;;;;;2.78;1.88;;;;;;;19.83;95.54;98669.41;4695788;30;20144;-57
2021/08/03 05:12:58;;;;;;;3.05;1.65;;;;;;;19.73;96.26;98649.25;4691076;30;20116;-57
2021/08/03 05:15:25;;;;;;;3.03;1.50;;;;;;;19.88;95.03;98669.00;4686119;30;20140;-56
2021/08/03 05:17:51;;;;;;;4.68;1.40;;;;;;;19.90;95.74;98669.69;4699322;30;20064;-58
2021/08/03 05:20:17;;;;;;;7.53;4.80;;;;;;;19.95;96.36;98664.00;4696633;30;20049;-56
2021/08/03 05:22:43;;;;;;;6.28;2.15;;;;;;;19.96;96.61;98668.31;4705811;30;20115;-57
2021/08/03 05:25:10;;;;;;;3.50;2.00;;;;;;;19.93;95.08;98677.34;4711938;30;20065;-57
2021/08/03 05:27:37;;;;;;;2.55;1.10;;;;;;;19.90;91.84;98682.88;4690161;30;20055;-57
2021/08/03 05:30:03;;;;;;;1.83;1.40;;;;;;;19.92;92.91;98680.94;4683102;30;20052;-58
2021/08/03 05:32:29;;;;;;;3.53;1.40;;;;;;;20.06;92.46;98671.78;4715700;30;20510;-56
2021/08/03 05:34:55;;;;;;;6.95;1.63;;;;;;;20.32;90.71;98680.03;4714829;30;20056;-58
2021/08/03 05:37:21;;;;;;;1.60;1.10;;;;;;;20.37;89.47;98683.09;4715519;30;20053;-57
2021/08/03 05:39:47;;;;;;;2.30;1.20;;;;;;;20.33;89.79;98665.88;4683862;30;21790;-58
2021/08/03 05:42:13;;;;;;;3.40;1.30;;;;;;;20.67;88.66;98680.34;4691256;30;20053;-53
2021/08/03 05:44:38;;;;;;;2.47;1.15;;;;;;;20.62;84.75;98666.72;4700197;30;20041;-51
2021/08/03 05:47:04;;;;;;;3.67;1.10;;;;;;;20.73;82.71;98686.88;4715738;30;20072;-52
2021/08/03 05:49:30;;;;;;;1.58;0.88;;;;;;;20.68;81.50;98688.09;4698613;30;20412;-56
2021/08/03 05:51:56;;;;;;;2.97;0.90;;;;;;;20.59;81.72;98688.94;4712562;30;20055;-54
2021/08/03 05:54:22;;;;;;;2.85;1.00;;;;;;;20.55;82.42;98671.72;4710648;30;20125;-55
2021/08/03 05:56:48;;;;;;;2.05;0.95;;;;;;;20.77;80.63;98699.66;4708881;30;20434;-53
2021/08/03 05:59:14;;;;;;;1.23;1.00;;;;;;;20.83;80.90;98703.53;4705574;30;20048;-67
2021/08/03 06:01:40;;;;;;;1.80;0.80;;;;;;;20.86;79.02;98698.78;4708123;30;20060;-64
2021/08/03 06:04:06;;;;;;;2.20;1.00;;;;;;;20.81;80.04;98684.34;4698658;30;20096;-63
2021/08/03 06:06:42;;;;;;;1.30;0.80;;;;;;;21.03;78.67;98694.59;4699462;30;20523;-63
2021/08/03 06:09:10;;;;;;;3.95;0.88;;;;;;;21.06;77.45;98699.59;4714720;30;20558;-64
2021/08/03 06:11:56;;;;;;;1.60;0.80;;;;;;;21.16;77.69;98699.59;4697971;30;20131;-65
2021/08/03 06:14:41;;;;;;;1.33;1.02;;;;;;;21.51;76.07;98705.06;4697979;30;20053;-62
2021/08/03 06:17:09;;;;;;;1.40;0.77;;;;;;;21.56;72.80;98708.09;4699639;30;20049;-63
2021/08/03 06:19:48;;;;;;;2.42;1.10;;;;;;;21.72;72.94;98704.81;4700812;30;20050;-62
2021/08/03 06:22:13;;;;;;;;;;;;;;;21.91;72.00;98716.13;4714633;30;20134;-63
2021/08/03 06:24:40;;;;;;;2.20;0.90;;;;;;;21.83;70.88;98699.31;4706695;30;19927;-65
2021/08/03 06:27:14;;;;;;;1.40;0.88;;;;;;;21.87;70.44;98737.75;4682313;30;20059;-63
2021/08/03 06:29:40;;;;;;;2.80;0.80;;;;;;;21.56;71.69;98713.38;4700812;30;20525;-59
2021/08/03 06:32:08;;;;;;;2.15;1.33;;;;;;;21.66;71.47;98730.06;4689959;30;20048;-61
2021/08/03 06:34:35;;;;;;;1.63;1.10;;;;;;;22.00;70.08;98738.25;4672730;30;20052;-64
2021/08/03 06:37:01;;;;;;;3.22;1.00;;;;;;;22.26;68.96;98722.50;4696732;30;20056;-62
2021/08/03 06:39:27;;;;;;;1.67;1.02;;;;;;;22.70;67.27;98732.22;4698766;30;20084;-67
2021/08/03 06:42:03;;;;;;;1.90;0.80;;;;;;;23.19;65.29;98741.38;4711824;30;20045;-65
2021/08/03 06:44:35;;;;;;;1.33;0.95;;;;;;;22.86;65.51;98733.34;4700121;30;20045;-68
2021/08/03 06:47:01;;;;;;;1.92;0.80;;;;;;;22.74;65.78;98735.41;4707902;30;20107;-66
2021/08/03 06:49:31;;;;;;;1.23;0.82;;;;;;;22.55;65.27;98748.78;4709038;30;20059;-66
2021/08/03 06:51:58;;;;;;;1.80;0.70;;;;;;;22.52;65.89;98738.47;4690909;30;20044;-66
2021/08/03 06:54:27;;;;;;;2.15;0.75;;;;;;;22.38;65.79;98731.91;4705626;30;20508;-66
2021/08/03 06:56:54;;;;;;;3.13;0.88;;;;;;;22.56;65.85;98737.22;4691839;30;20140;-60
2021/08/03 06:59:26;;;;;;;2.00;0.70;;;;;;;22.64;65.34;98743.41;4688562;30;20834;-57
2021/08/03 07:01:56;;;;;;;1.90;0.70;;;;;;;22.49;65.53;98744.09;4691145;30;20057;-57
2021/08/03 07:04:27;;;;;;;1.55;1.33;;;;;;;22.32;65.57;98735.13;4705173;30;20049;-55
2021/08/03 07:06:56;;;;;;;2.55;1.00;;;;;;;22.16;66.64;98745.56;4689557;30;20144;-54
2021/08/03 07:09:25;;;;;;;1.90;0.90;;;;;;;22.33;66.94;98755.34;4676861;30;20056;-58
2021/08/03 07:11:53;;;;;;;4.72;1.25;;;;;;;22.32;66.42;98732.50;4693116;30;20056;-57
2021/08/03 07:14:19;;;;;;;1.80;0.93;;;;;;;22.57;65.33;98739.69;4686294;30;20497;-56
2021/08/03 07:16:47;;;;;;;2.78;1.17;;;;;;;22.52;63.14;98739.31;4674068;30;20388;-58
2021/08/03 07:19:14;;;;;;;4.05;1.05;;;;;;;22.46;63.60;98744.38;4689915;30;20549;-57
2021/08/03 07:21:42;;;;;;;1.15;0.70;;;;;;;22.35;64.59;98759.50;4697800;30;20583;-57
2021/08/03 07:24:12;;;;;;;2.58;0.88;;;;;;;22.41;65.06;98763.38;4688279;30;20045;-58
2021/08/03 07:26:38;;;;;;;2.70;0.80;;;;;;;22.36;62.97;98755.03;4696293;30;20059;-58
2021/08/03 07:29:05;;;;;;;2.00;0.93;;;;;;;22.27;63.78;98772.66;4702452;30;20407;-57
2021/08/03 07:31:31;;;;;;;1.40;0.75;;;;;;;22.54;62.86;98771.78;4698616;30;20075;-59
2021/08/03 07:33:57;;;;;;;1.15;0.75;;;;;;;23.40;60.06;98767.56;4706285;30;20471;-59
2021/08/03 07:36:23;;;;;;;1.10;0.80;;;;;;;23.42;60.05;98756.78;4685034;30;20045;-59
2021/08/03 07:38:54;;;;;;;1.42;0.70;;;;;;;22.97;61.68;98756.97;4696598;30;20041;-59
2021/08/03 07:41:25;;;;;;;1.58;1.00;;;;;;;22.93;62.58;98761.72;4693885;30;20147;-52
2021/08/03 07:43:52;;;;;;;2.45;1.25;;;;;;;22.77;62.94;98769.53;4689261;30;20136;-59
2021/08/03 07:46:19;;;;;;;4.63;1.20;;;;;;;23.21;60.11;98775.72;4706119;30;20052;-59
2021/08/03 07:48:54;;;;;;;2.50;1.33;;;;;;;23.09;60.57;98769.81;4704387;30;20140;-58
2021/08/03 07:51:21;;;;;;;3.30;1.10;;;;;;;23.44;59.15;98763.63;4694909;30;20045;-54
2021/08/03 07:53:47;;;;;;;3.60;1.33;;;;;;;24.59;56.17;98779.91;4704781;30;20044;-52
2021/08/03 07:56:14;;;;;;;1.40;0.90;;;;;;;24.39;56.10;98765.25;4711534;30;20053;-60
2021/08/03 07:58:40;;;;;;;3.25;0.70;;;;;;;23.97;57.09;98781.19;4715523;30;20064;-59
2021/08/03 08:01:06;;;;;;;3.40;1.00;;;;;;;23.46;57.18;98784.69;4701349;30;20045;-60
2021/08/03 08:03:33;;;;;;;3.58;1.40;;;;;;;23.17;57.68;98784.97;4685118;30;20048;-59
2021/08/03 08:05:59;;;;;;;2.35;1.00;;;;;;;24.00;56.05;98796.78;4709443;30;20057;-59
2021/08/03 08:08:25;;;;;;;2.40;0.70;;;;;;;24.68;53.00;98791.38;4705038;30;20072;-59
2021/08/03 08:10:51;;;;;;;2.78;0.90;;;;;;;24.22;54.50;98798.91;4694298;30;20049;-59
2021/08/03 08:13:17;;;;;;;2.47;0.80;;;;;;;24.08;55.48;98797.66;4712733;30;20041;-61
2021/08/03 08:15:43;;;;;;;0.70;0.60;;;;;;;24.07;55.21;98792.53;4685518;30;20049;-58
2021/08/03 08:18:10;;;;;;;2.65;0.80;;;;;;;24.47;53.58;98794.50;4686484;30;20053;-59
2021/08/03 08:20:37;;;;;;;3.25;1.08;;;;;;;25.36;51.70;98793.75;4687494;30;20076;-54
2021/08/03 08:23:04;;;;;;;2.85;1.50;;;;;;;26.46;48.69;98785.78;4715735;30;20138;-67
2021/08/03 08:25:30;;;;;;;0.80;0.70;;;;;;;27.45;45.03;98796.41;4698849;30;20202;-58
2021/08/03 08:27:56;;;;;;;3.70;0.90;;;;;;;26.80;45.88;98793.41;4715282;30;20485;-59
2021/08/03 08:30:22;;;;;;;1.13;0.70;;;;;;;25.59;49.31;98771.63;4706871;30;20049;-58
2021/08/03 08:32:47;;;;;;;2.72;0.70;;;;;;;24.80;51.27;98785.59;4711730;30;20053;-59
2021/08/03 08:35:13;;;;;;;1.10;1.00;;;;;;;24.15;53.61;98776.59;4683473;30;20533;-60
2021/08/03 08:37:40;;;;;;;2.25;0.80;;;;;;;24.27;52.71;98783.31;4709108;30;20589;-60
2021/08/03 08:40:07;;;;;;;1.08;0.77;;;;;;;24.34;51.15;98786.97;4698914;30;20055;-60
2021/08/03 08:42:33;;;;;;;2.00;0.82;;;;;;;24.45;51.85;98777.88;4714628;30;20049;-64
2021/08/03 08:45:00;;;;;;;3.97;0.90;;;;;;;24.15;52.54;98789.88;4716353;30;20553;-55
2021/08/03 08:47:27;;;;;;;1.25;0.73;;;;;;;23.71;54.21;98783.06;4716454;30;20423;-70
2021/08/03 08:49:52;;;;;;;1.58;0.82;;;;;;;23.57;54.25;98779.13;4715600;30;20049;-57
2021/08/03 08:52:18;;;;;;;2.55;1.30;;;;;;;23.87;52.95;98783.09;4711867;30;20053;-64
2021/08/03 08:54:44;;;;;;;3.60;0.95;;;;;;;25.67;48.02;98789.41;4714400;30;20584;-61
2021/08/03 08:57:10;;;;;;;1.05;0.80;;;;;;;26.47;45.54;98787.47;4715042;30;20041;-63
2021/08/03 08:59:36;;;;;;;4.55;1.20;;;;;;;26.20;47.22;98772.75;4704483;30;20434;-61
2021/08/03 09:02:03;;;;;;;1.27;0.80;;;;;;;25.35;48.71;98792.94;4688986;30;20066;-59
2021/08/03 09:04:28;;;;;;;4.32;1.63;;;;;;;25.07;50.22;98800.41;4705551;30;20048;-60
2021/08/03 09:07:01;;;;;;;1.80;0.80;;;;;;;25.13;50.11;98801.59;4703108;30;20054;-58
2021/08/03 09:09:27;;;;;;;2.28;1.00;;;;;;;25.39;49.57;98807.56;4707753;30;20534;-59
2021/08/03 09:11:53;;;;;;;1.38;0.90;;;;;;;25.76;45.65;98812.34;4704844;30;20107;-60
2021/08/03 09:14:34;;;;;;;1.73;0.90;;;;;;;25.48;45.41;98806.56;4700779;30;20042;-61
2021/08/03 09:17:00;;;;;;;3.75;1.83;;;;;;;25.82;45.18;98800.19;4702909;30;20080;-68
2021/08/03 09:19:39;;;;;;;1.13;0.90;;;;;;;26.21;44.73;98800.22;4703581;30;20504;-61
2021/08/03 09:22:17;;;;;;;2.42;1.17;;;;;;;26.65;43.95;98796.00;4704470;30;20462;-60
2021/08/03 09:24:45;;;;;;;1.55;1.17;;;;;;;28.64;40.47;98798.88;4694676;30;20052;-63
2021/08/03 09:27:31;;;;;;;;;;;;;;;29.57;38.15;98825.56;4695256;30;20041;-63
2021/08/03 09:29:56;;;;;;;5.28;1.23;;;;;;;29.36;39.34;98821.03;4692188;30;20392;-53
2021/08/03 09:32:33;;;;;;;1.67;1.00;;;;;;;27.89;42.02;98812.53;4698672;30;20084;-61
2021/08/03 09:35:07;;;;;;;4.57;1.42;;;;;;;27.65;42.13;98821.59;4704634;30;20422;-51
2021/08/03 09:37:34;;;;;;;1.77;1.33;;;;;;;28.90;39.64;98842.00;4712123;30;20511;-60
2021/08/03 09:39:59;;;;;;;1.95;1.33;;;;;;;29.19;37.91;98835.69;4715734;30;20526;-60
2021/08/03 09:42:29;;;;;;;5.20;1.50;;;;;;;29.17;37.39;98832.38;4714863;30;20135;-66
2021/08/03 09:44:55;;;;;;;2.13;1.50;;;;;;;29.38;37.29;98816.31;4699474;30;20049;-61
2021/08/03 09:47:22;;;;;;;2.80;1.10;;;;;;;28.68;38.52;98816.22;4712809;30;20059;-59
2021/08/03 09:49:51;;;;;;;5.20;1.42;;;;;;;29.32;37.04;98837.69;4706919;30;20060;-63
2021/08/03 09:52:22;;;;;;;2.25;1.30;;;;;;;30.68;34.86;98830.72;4711373;30;20107;-62
2021/08/03 09:54:48;;;;;;;2.40;1.42;;;;;;;30.70;33.97;98830.53;4705556;30;20156;-62
2021/08/03 09:57:21;;;;;;;4.95;1.70;;;;;;;31.61;32.42;98842.47;4705929;30;20088;-65
2021/08/03 09:59:48;;;;;;;1.70;1.58;;;;;;;32.82;31.34;98845.47;4708684;30;20052;-64
2021/08/03 10:02:20;;;;;;;3.72;2.58;;;;;;;34.33;28.89;98846.94;4715074;30;20053;-57
2021/08/03 10:04:47;;;;;;;1.58;1.30;;;;;;;32.52;30.73;98845.16;4714731;30;20045;-64
2021/08/03 10:07:13;;;;;;;2.00;1.30;;;;;;;30.72;33.79;98852.63;4698114;30;20095;-68
2021/08/03 10:09:40;;;;;;;1.98;1.20;;;;;;;29.12;36.48;98860.75;4699744;30;20056;-64
2021/08/03 10:12:06;;;;;;;2.28;1.10;;;;;;;27.87;39.02;98853.78;4687321;30;20139;-67
2021/08/03 10:14:32;;;;;;;3.05;1.10;;;;;;;26.73;40.71;98846.63;4699024;30;20144;-61
2021/08/03 10:16:58;;;;;;;3.10;1.70;;;;;;;28.55;37.40;98854.34;4703991;30;20053;-64
2021/08/03 10:19:27;;;;;;;3.97;2.72;;;;;;;29.50;35.31;98850.63;4686890;30;20049;-61
2021/08/03 10:22:24;;;;;;;2.88;1.85;;;;;;;29.11;35.90;98857.22;4712876;30;20790;-69
2021/08/03 10:24:58;;;;;;;1.87;1.60;;;;;;;30.06;34.64;98844.25;4707252;30;20378;-72
2021/08/03 10:27:45;;;;;;;2.95;1.85;;;;;;;31.69;31.27;98853.00;4706911;30;20071;-69
2021/08/03 10:30:40;;;;;;;3.78;1.30;;;;;;;31.70;31.39;98843.91;4693623;30;20063;-65
2021/08/03 10:33:12;;;;;;;1.73;1.13;;;;;;;30.46;33.31;98849.81;4686578;30;20144;-64
2021/08/03 10:35:48;;;;;;;1.50;1.40;;;;;;;30.48;33.49;98837.88;4697404;30;20601;-68
2021/08/03 10:38:29;;;;;;;3.72;1.77;;;;;;;31.64;31.19;98846.59;4697838;30;20053;-67
2021/08/03 10:40:57;;;;;;;2.42;1.40;;;;;;;31.74;30.76;98842.47;4707575;30;20530;-68
2021/08/03 10:43:25;;;;;;;1.75;1.63;;;;;;;32.03;29.54;98851.09;4697367;30;20057;-65
2021/08/03 10:46:06;;;;;;;2.13;1.90;;;;;;;32.09;29.75;98861.81;4702828;30;20053;-67
2021/08/03 10:48:38;;;;;;;3.28;1.70;;;;;;;32.04;30.01;98842.81;4707794;30;20076;-66
2021/08/03 10:51:13;;;;;;;4.03;1.70;;;;;;;31.94;29.99;98839.72;4700415;30;20045;-64
2021/08/03 10:53:57;;;;;;;1.90;1.80;;;;;;;32.60;28.64;98847.63;4706318;30;20049;-63
2021/08/03 10:56:23;;;;;;;4.30;1.55;;;;;;;31.31;30.71;98831.28;4713795;30;20518;-64
2021/08/03 10:58:49;;;;;;;2.92;1.90;;;;;;;31.18;31.17;98836.66;4698941;30;20053;-65
2021/08/03 11:01:42;;;;;;;2.15;1.95;;;;;;;31.81;30.39;98831.69;4714618;30;20053;-68
2021/08/03 11:04:08;;;;;;;3.15;1.30;;;;;;;32.41;29.89;98832.38;4714241;30;20064;-71
2021/08/03 11:06:34;;;;;;;2.78;1.85;;;;;;;32.12;29.58;98844.50;4709105;30;20140;-68
2021/08/03 11:09:00;;;;;;;2.03;1.55;;;;;;;32.10;29.55;98831.22;4697331;30;20056;-72
2021/08/03 11:11:28;;;;;;;2.47;1.92;;;;;;;33.10;28.35;98843.22;4698799;30;20091;-70
2021/08/03 11:13:54;;;;;;;4.85;1.90;;;;;;;33.60;28.25;98847.63;4699776;30;20040;-69
2021/08/03 11:16:20;;;;;;;1.70;1.60;;;;;;;33.24;28.02;98841.31;4703369;30;20089;-70
2021/08/03 11:18:48;;;;;;;4.22;2.47;;;;;;;33.25;28.30;98842.94;4697925;30;20053;-70
2021/08/03 11:21:15;;;;;;;2.97;2.10;;;;;;;33.97;27.58;98839.63;4698098;30;20060;-71
2021/08/03 11:24:02;;;;;;;2.67;2.30;;;;;;;34.33;26.94;98825.34;4702031;30;20434;-67
2021/08/03 11:26:33;;;;;;;;;;;;;;;34.25;26.58;98847.25;4705862;30;20577;-65
2021/08/03 11:29:04;;;;;;;3.45;2.13;;;;;;;34.42;26.68;98834.78;4710034;30;19923;-65
2021/08/03 11:31:44;;;;;;;3.90;1.95;;;;;;;34.60;25.58;98829.34;4703824;30;20434;-65
2021/08/03 11:34:12;;;;;;;3.22;1.80;;;;;;;34.18;25.89;98819.50;4713901;30;20156;-63
2021/08/03 11:36:55;;;;;;;7.15;1.75;;;;;;;33.18;26.39;98816.06;4698080;30;20438;-68
2021/08/03 11:39:39;;;;;;;3.67;1.60;;;;;;;31.69;28.98;98822.59;4708775;30;20049;-65
2021/08/03 11:42:06;;;;;;;2.03;1.38;;;;;;;32.75;27.61;98821.28;4713158;30;20123;-68